createdAt,value
2022-10-11T00:02:07.140Z,78.59
2022-10-11T00:04:34.886Z,78.55
2022-10-11T00:07:02.625Z,78.15
2022-10-11T00:09:31.464Z,78.54
2022-10-11T00:11:59.294Z,78.47
2022-10-11T00:14:28.009Z,78.39
2022-10-11T00:16:57.412Z,78.42
2022-10-11T00:19:25.217Z,78.58
2022-10-11T00:21:53.031Z,78.17
2022-10-11T00:24:20.974Z,78.20
2022-10-11T00:26:48.772Z,78.05
2022-10-11T00:29:16.514Z,78.07
2022-10-11T00:31:44.283Z,77.91
2022-10-11T00:34:15.569Z,77.94
2022-10-11T00:36:43.332Z,77.96
2022-10-11T00:39:12.297Z,78.13
2022-10-11T00:41:41.570Z,78.12
2022-10-11T00:44:11.281Z,78.23
2022-10-11T00:46:41.000Z,78.20
2022-10-11T00:49:18.231Z,77.94
2022-10-11T00:51:51.876Z,77.91
2022-10-11T00:54:23.046Z,78.51
2022-10-11T00:56:54.462Z,78.00
2022-10-11T00:59:25.899Z,78.39
2022-10-11T01:01:53.854Z,78.54
2022-10-11T01:04:23.060Z,78.13
2022-10-11T01:06:51.663Z,78.10
2022-10-11T01:09:21.329Z,78.29
2022-10-11T01:11:53.771Z,78.14
2022-10-11T01:14:43.996Z,78.69
2022-10-11T01:17:25.326Z,78.23
2022-10-11T01:20:13.616Z,78.19
2022-10-11T01:23:09.473Z,79.07
2022-10-11T01:25:42.689Z,78.87
2022-10-11T01:28:27.613Z,79.02
2022-10-11T01:31:01.508Z,78.46
2022-10-11T01:33:36.858Z,79.16
2022-10-11T01:36:12.809Z,78.77
2022-10-11T01:38:47.880Z,78.76
2022-10-11T01:41:20.251Z,79.07
2022-10-11T01:43:49.524Z,78.98
2022-10-11T01:46:21.071Z,78.87
2022-10-11T01:48:50.725Z,79.02
2022-10-11T01:51:22.605Z,78.76
2022-10-11T01:54:05.553Z,78.75
2022-10-11T01:56:47.709Z,78.78
2022-10-11T01:59:26.057Z,78.83
2022-10-11T02:02:07.347Z,79.26
2022-10-11T02:04:41.978Z,78.85
2022-10-11T02:07:13.999Z,78.93
2022-10-11T02:09:47.523Z,79.41
2022-10-11T02:12:23.825Z,79.51
2022-10-11T02:14:55.688Z,79.28
2022-10-11T02:17:30.789Z,79.11
2022-10-11T02:20:00.291Z,79.50
2022-10-11T02:22:33.038Z,79.75
2022-10-11T02:25:04.480Z,79.56
2022-10-11T02:27:35.232Z,78.97
2022-10-11T02:30:07.339Z,79.51
2022-10-11T02:32:40.994Z,79.78
2022-10-11T02:35:10.562Z,79.15
2022-10-11T02:37:44.637Z,79.66
2022-10-11T02:40:17.359Z,79.45
2022-10-11T02:42:49.729Z,79.83
2022-10-11T02:45:23.444Z,79.13
2022-10-11T02:47:53.102Z,79.28
2022-10-11T02:50:23.117Z,79.74
2022-10-11T02:52:51.112Z,80.03
2022-10-11T02:55:19.146Z,79.26
2022-10-11T02:57:47.068Z,79.70
2022-10-11T03:00:15.806Z,79.76
2022-10-11T03:02:43.637Z,80.24
2022-10-11T03:05:12.783Z,79.35
2022-10-11T03:07:40.596Z,79.72
2022-10-11T03:10:08.943Z,79.48
2022-10-11T03:12:36.767Z,80.04
2022-10-11T03:15:04.958Z,79.76
2022-10-11T03:17:36.732Z,79.21
2022-10-11T03:20:06.318Z,80.07
2022-10-11T03:22:35.630Z,80.17
2022-10-11T03:25:04.638Z,80.01
2022-10-11T03:27:32.731Z,80.08
2022-10-11T03:30:00.578Z,80.45
2022-10-11T03:32:28.546Z,80.56
2022-10-11T03:34:56.413Z,79.92
2022-10-11T03:37:25.224Z,79.64
2022-10-11T03:39:54.474Z,80.17
2022-10-11T03:42:22.272Z,79.71
2022-10-11T03:44:51.956Z,80.21
2022-10-11T03:47:20.066Z,79.94
2022-10-11T03:49:47.934Z,80.79
2022-10-11T03:52:15.711Z,80.30
2022-10-11T03:54:43.488Z,80.45
2022-10-11T03:57:12.680Z,80.79
2022-10-11T03:59:40.461Z,80.63
2022-10-11T04:02:08.330Z,80.05
2022-10-11T04:04:36.334Z,80.51
2022-10-11T04:07:04.480Z,80.02
2022-10-11T04:09:32.406Z,80.11
2022-10-11T04:12:00.849Z,80.25
2022-10-11T04:14:30.071Z,80.17
2022-10-11T04:17:00.377Z,80.06
2022-10-11T04:19:28.854Z,80.12
2022-10-11T04:21:56.582Z,79.92
2022-10-11T04:24:24.377Z,81.02
2022-10-11T04:26:52.168Z,80.44
2022-10-11T04:29:19.884Z,80.95
2022-10-11T04:31:49.102Z,80.56
2022-10-11T04:34:17.298Z,80.99
2022-10-11T04:36:49.613Z,81.09
2022-10-11T04:39:17.843Z,80.59
2022-10-11T04:41:45.676Z,79.96
2022-10-11T04:44:13.500Z,80.54
2022-10-11T04:46:41.292Z,80.48
2022-10-11T04:49:10.402Z,80.28
2022-10-11T04:51:38.205Z,80.32
2022-10-11T04:54:06.115Z,81.44
2022-10-11T04:56:33.896Z,81.21
2022-10-11T04:59:01.722Z,80.72
2022-10-11T05:01:29.537Z,80.44
2022-10-11T05:03:57.335Z,80.46
2022-10-11T05:06:26.484Z,80.88
2022-10-11T05:08:54.207Z,81.08
2022-10-11T05:11:22.000Z,81.27
2022-10-11T05:13:50.084Z,81.02
2022-10-11T05:16:18.340Z,80.45
2022-10-11T05:18:46.291Z,81.11
2022-10-11T05:21:17.467Z,81.13
2022-10-11T05:23:48.166Z,81.21
2022-10-11T05:26:16.211Z,80.92
2022-10-11T05:28:44.262Z,81.43
2022-10-11T05:31:12.116Z,81.26
2022-10-11T05:33:40.212Z,81.28
2022-10-11T05:36:09.674Z,80.95
2022-10-11T05:38:38.981Z,81.51
2022-10-11T05:41:10.026Z,80.72
2022-10-11T05:43:37.854Z,81.71
2022-10-11T05:46:06.879Z,80.54
2022-10-11T05:48:35.179Z,80.64
2022-10-11T05:51:03.681Z,81.13
2022-10-11T05:53:32.185Z,81.26
2022-10-11T05:56:00.307Z,81.14
2022-10-11T05:58:29.655Z,81.19
2022-10-11T06:00:57.750Z,80.94
2022-10-11T06:03:25.878Z,81.36
2022-10-11T06:05:56.928Z,81.30
2022-10-11T06:08:25.151Z,80.86
2022-10-11T06:10:52.999Z,81.53
2022-10-11T06:13:20.814Z,80.95
2022-10-11T06:15:50.263Z,80.98
2022-10-11T06:18:18.011Z,81.52
2022-10-11T06:20:45.805Z,81.71
2022-10-11T06:23:13.656Z,81.08
2022-10-11T06:25:41.461Z,81.05
2022-10-11T06:28:09.349Z,81.96
2022-10-11T06:30:39.400Z,81.64
2022-10-11T06:33:08.660Z,81.44
2022-10-11T06:35:36.428Z,81.38
2022-10-11T06:38:04.206Z,82.38
2022-10-11T06:40:32.059Z,82.06
2022-10-11T06:42:59.841Z,82.51
2022-10-11T06:45:27.576Z,81.70
2022-10-11T06:47:55.341Z,82.36
2022-10-11T06:50:47.093Z,81.64
2022-10-11T06:53:12.705Z,82.79
2022-10-11T06:55:40.866Z,82.14
2022-10-11T06:58:08.544Z,81.81
2022-10-11T07:00:36.316Z,81.76
2022-10-11T07:03:04.859Z,82.84
2022-10-11T07:05:35.839Z,82.53
2022-10-11T07:08:03.636Z,82.27
2022-10-11T07:10:31.388Z,82.18
2022-10-11T07:12:59.081Z,82.35
2022-10-11T07:15:27.022Z,82.85
2022-10-11T07:17:54.769Z,83.34
2022-10-11T07:20:22.606Z,82.40
2022-10-11T07:22:51.724Z,82.82
2022-10-11T07:25:19.496Z,82.96
2022-10-11T07:27:47.264Z,82.97
2022-10-11T07:30:15.007Z,83.73
2022-10-11T07:32:42.774Z,83.91
2022-10-11T07:35:13.556Z,83.78
2022-10-11T07:37:41.325Z,85.65
2022-10-11T07:40:11.652Z,86.25
2022-10-11T07:42:39.586Z,87.31
2022-10-11T07:45:07.965Z,87.60
2022-10-11T07:47:35.711Z,88.29
2022-10-11T07:50:03.457Z,87.25
2022-10-11T07:52:31.207Z,87.88
2022-10-11T07:54:58.944Z,88.17
2022-10-11T07:57:28.109Z,89.45
2022-10-11T07:59:55.935Z,90.11
2022-10-11T08:02:23.733Z,90.54
2022-10-11T08:04:51.668Z,90.60
2022-10-11T08:07:19.470Z,90.27
2022-10-11T08:09:47.321Z,89.37
2022-10-11T08:12:15.152Z,88.96
2022-10-11T08:14:44.348Z,90.25
2022-10-11T08:17:12.134Z,91.14
2022-10-11T08:19:39.957Z,90.69
2022-10-11T08:22:08.038Z,90.99
2022-10-11T08:24:38.277Z,91.24
2022-10-11T08:27:06.411Z,91.16
2022-10-11T08:29:34.632Z,91.59
2022-10-11T08:32:03.787Z,92.63
2022-10-11T08:34:31.592Z,92.58
2022-10-11T08:36:59.449Z,91.96
2022-10-11T08:39:27.296Z,92.46
2022-10-11T08:41:56.939Z,92.67
2022-10-11T08:45:09.658Z,92.72
2022-10-11T08:47:33.913Z,92.25
2022-10-11T08:50:02.277Z,92.45
2022-10-11T08:52:46.318Z,92.65
2022-10-11T08:55:20.375Z,91.95
2022-10-11T08:57:53.354Z,92.52
2022-10-11T09:00:22.470Z,92.16
2022-10-11T09:03:09.982Z,91.89
2022-10-11T09:05:48.088Z,92.07
2022-10-11T09:08:23.293Z,92.10
2022-10-11T09:11:00.873Z,91.98
2022-10-11T09:13:53.594Z,91.22
2022-10-11T09:16:30.358Z,90.20
2022-10-11T09:19:16.038Z,89.68
2022-10-11T09:21:53.019Z,90.02
2022-10-11T09:24:35.066Z,89.14
2022-10-11T09:27:14.290Z,89.26
2022-10-11T09:29:55.684Z,87.63
2022-10-11T09:32:26.104Z,88.52
2022-10-11T09:35:01.173Z,87.76
2022-10-11T09:37:34.510Z,87.98
2022-10-11T09:40:18.666Z,86.43
2022-10-11T09:42:46.476Z,86.59
2022-10-11T09:45:18.493Z,86.64
2022-10-11T09:47:46.561Z,86.02
2022-10-11T09:50:20.020Z,84.24
2022-10-11T09:52:51.966Z,82.46
2022-10-11T09:55:36.105Z,81.27
2022-10-11T09:58:04.975Z,82.26
2022-10-11T10:00:33.877Z,81.59
2022-10-11T10:03:03.517Z,81.23
2022-10-11T10:05:34.257Z,80.12
2022-10-11T10:08:08.101Z,79.68
2022-10-11T10:10:39.718Z,78.83
2022-10-11T10:13:20.949Z,76.94
2022-10-11T10:15:51.914Z,78.97
2022-10-11T10:18:23.734Z,78.24
2022-10-11T10:20:59.460Z,75.93
2022-10-11T10:23:30.755Z,76.98
2022-10-11T10:26:13.324Z,74.25
2022-10-11T10:28:55.942Z,75.63
2022-10-11T10:31:26.410Z,76.85
2022-10-11T10:33:55.764Z,75.37
2022-10-11T10:36:30.588Z,72.57
2022-10-11T10:39:03.523Z,74.42
2022-10-11T10:41:31.426Z,74.23
2022-10-11T10:44:01.195Z,72.78
2022-10-11T10:46:41.549Z,69.81
2022-10-11T10:49:52.486Z,71.98
2022-10-11T10:52:26.794Z,71.46
2022-10-11T10:55:03.829Z,72.82
2022-10-11T10:57:45.457Z,71.72
2022-10-11T11:00:17.118Z,71.21
2022-10-11T11:02:51.607Z,70.72
2022-10-11T11:05:28.213Z,69.35
2022-10-11T11:08:08.299Z,68.50
2022-10-11T11:10:40.003Z,66.05
2022-10-11T11:13:28.561Z,63.74
2022-10-11T11:16:07.686Z,62.95
2022-10-11T11:18:43.254Z,62.84
2022-10-11T11:21:23.328Z,63.10
2022-10-11T11:24:02.691Z,64.28
2022-10-11T11:26:40.776Z,65.25
2022-10-11T11:29:22.217Z,63.15
2022-10-11T11:32:08.334Z,62.17
2022-10-11T11:34:42.461Z,63.64
2022-10-11T11:37:17.946Z,61.61
2022-10-11T11:39:51.787Z,60.86
2022-10-11T11:42:24.394Z,60.65
2022-10-11T11:44:52.805Z,62.28
2022-10-11T11:47:26.878Z,60.12
2022-10-11T11:49:59.776Z,61.13
2022-10-11T11:52:32.605Z,61.28
2022-10-11T11:55:09.913Z,59.29
2022-10-11T11:57:53.109Z,59.05
2022-10-11T12:00:23.312Z,59.77
2022-10-11T12:02:54.378Z,60.66
2022-10-11T12:05:25.361Z,61.77
2022-10-11T12:07:57.521Z,59.39
2022-10-11T12:10:34.165Z,60.03
2022-10-11T12:13:17.250Z,60.07
2022-10-11T12:16:13.577Z,59.01
2022-10-11T12:18:55.043Z,60.16
2022-10-11T12:21:30.630Z,62.51
2022-10-11T12:24:00.119Z,62.33
2022-10-11T12:26:41.576Z,62.26
2022-10-11T12:29:29.141Z,62.68
2022-10-11T12:32:53.448Z,62.92
2022-10-11T12:35:58.102Z,63.03
2022-10-11T12:38:31.772Z,61.24
2022-10-11T12:41:01.636Z,62.12
2022-10-11T12:43:36.286Z,61.77
2022-10-11T12:46:39.340Z,61.09
2022-10-11T12:49:21.774Z,57.84
2022-10-11T12:51:59.973Z,58.40
2022-10-11T12:54:54.008Z,58.52
2022-10-11T12:57:51.636Z,59.10
2022-10-11T13:00:26.148Z,59.30
2022-10-11T13:02:53.906Z,59.21
2022-10-11T13:05:27.137Z,57.54
2022-10-11T13:07:59.032Z,58.73
2022-10-11T13:10:31.724Z,58.81
2022-10-11T13:13:04.355Z,58.38
2022-10-11T13:15:32.476Z,58.34
2022-10-11T13:18:01.538Z,57.55
2022-10-11T13:20:32.209Z,58.42
2022-10-11T13:23:02.292Z,58.51
2022-10-11T13:25:37.438Z,58.73
2022-10-11T13:28:09.973Z,58.12
2022-10-11T13:30:43.400Z,58.77
2022-10-11T13:33:19.409Z,57.38
2022-10-11T13:35:48.489Z,57.87
2022-10-11T13:38:21.828Z,56.75
2022-10-11T13:40:51.236Z,57.97
2022-10-11T13:43:23.434Z,57.03
2022-10-11T13:45:51.452Z,56.60
2022-10-11T13:48:19.406Z,57.02
2022-10-11T13:51:06.563Z,55.02
2022-10-11T13:53:36.109Z,56.54
2022-10-11T13:56:07.360Z,55.56
2022-10-11T13:58:40.367Z,55.30
2022-10-11T14:01:19.038Z,52.82
2022-10-11T14:03:48.748Z,54.61
2022-10-11T14:06:16.671Z,53.50
2022-10-11T14:08:47.740Z,55.42
2022-10-11T14:11:16.776Z,54.84
2022-10-11T14:13:46.424Z,54.79
2022-10-11T14:16:29.126Z,54.86
2022-10-11T14:19:10.046Z,53.27
2022-10-11T14:21:51.223Z,55.39
2022-10-11T14:24:20.998Z,55.82
2022-10-11T14:26:51.473Z,55.64
2022-10-11T14:29:25.624Z,55.30
2022-10-11T14:31:56.390Z,55.97
2022-10-11T14:34:27.117Z,54.88
2022-10-11T14:36:54.970Z,55.51
2022-10-11T14:39:27.557Z,55.33
2022-10-11T14:41:55.635Z,54.55
2022-10-11T14:44:24.084Z,54.30
2022-10-11T14:46:54.702Z,53.59
2022-10-11T14:49:25.261Z,53.87
2022-10-11T14:51:54.487Z,54.56
2022-10-11T14:54:25.608Z,55.46
2022-10-11T14:56:55.972Z,54.35
2022-10-11T14:59:26.788Z,54.58
2022-10-11T15:01:54.816Z,53.92
2022-10-11T15:04:23.512Z,53.38
2022-10-11T15:06:52.440Z,54.18
2022-10-11T15:09:21.527Z,54.25
2022-10-11T15:11:52.862Z,54.71
2022-10-11T15:14:20.621Z,55.05
2022-10-11T15:16:48.857Z,53.80
2022-10-11T15:19:18.457Z,54.33
2022-10-11T15:21:46.768Z,54.58
2022-10-11T15:24:14.943Z,55.32
2022-10-11T15:26:42.756Z,54.96
2022-10-11T15:29:13.776Z,52.85
2022-10-11T15:31:41.582Z,53.53
2022-10-11T15:34:09.452Z,55.17
2022-10-11T15:36:37.208Z,55.17
2022-10-11T15:39:05.239Z,55.48
2022-10-11T15:41:33.066Z,55.62
2022-10-11T15:44:00.844Z,55.45
2022-10-11T15:46:30.141Z,56.76
2022-10-11T15:48:57.917Z,56.81
2022-10-11T15:51:25.820Z,56.62
2022-10-11T15:53:53.639Z,57.07
2022-10-11T15:56:21.423Z,57.87
2022-10-11T15:58:50.110Z,58.52
2022-10-11T16:01:20.279Z,58.67
2022-10-11T16:03:50.807Z,58.83
2022-10-11T16:06:19.571Z,59.50
2022-10-11T16:08:48.136Z,60.16
2022-10-11T16:11:16.029Z,60.19
2022-10-11T16:13:45.093Z,60.35
2022-10-11T16:16:13.446Z,60.86
2022-10-11T16:18:41.570Z,61.05
2022-10-11T16:21:15.458Z,61.43
2022-10-11T16:23:43.403Z,61.95
2022-10-11T16:26:16.278Z,62.65
2022-10-11T16:28:44.503Z,62.24
2022-10-11T16:31:18.010Z,62.96
2022-10-11T16:33:50.149Z,62.95
2022-10-11T16:36:36.095Z,63.09
2022-10-11T16:39:08.131Z,63.87
2022-10-11T16:41:36.045Z,64.45
2022-10-11T16:44:03.869Z,64.41
2022-10-11T16:46:32.838Z,64.97
2022-10-11T16:49:00.842Z,64.96
2022-10-11T16:51:30.061Z,65.67
2022-10-11T16:53:58.213Z,65.71
2022-10-11T16:56:26.080Z,65.65
2022-10-11T16:58:54.288Z,65.52
2022-10-11T17:01:22.525Z,65.96
2022-10-11T17:03:50.840Z,65.74
2022-10-11T17:06:19.242Z,65.48
2022-10-11T17:08:48.402Z,65.86
2022-10-11T17:11:17.419Z,65.53
2022-10-11T17:13:45.383Z,65.72
2022-10-11T17:16:14.092Z,65.78
2022-10-11T17:18:41.865Z,65.63
2022-10-11T17:21:13.041Z,65.62
2022-10-11T17:23:41.039Z,66.02
2022-10-11T17:26:13.362Z,65.79
2022-10-11T17:28:41.653Z,66.09
2022-10-11T17:31:10.219Z,66.04
2022-10-11T17:33:38.603Z,66.33
2022-10-11T17:36:16.505Z,66.59
2022-10-11T17:38:44.342Z,66.33
2022-10-11T17:41:13.669Z,66.64
2022-10-11T17:43:41.900Z,66.40
2022-10-11T17:46:10.145Z,66.71
2022-10-11T17:48:39.402Z,66.50
2022-10-11T17:51:09.162Z,67.19
2022-10-11T17:53:37.290Z,66.90
2022-10-11T17:56:06.373Z,67.22
2022-10-11T17:58:36.283Z,67.24
2022-10-11T18:01:05.931Z,67.28
2022-10-11T18:03:34.485Z,67.80
2022-10-11T18:06:06.719Z,68.00
2022-10-11T18:08:39.999Z,67.97
2022-10-11T18:11:12.777Z,68.29
2022-10-11T18:13:45.997Z,67.89
2022-10-11T18:16:14.974Z,68.12
2022-10-11T18:18:42.899Z,68.04
2022-10-11T18:21:11.179Z,68.13
2022-10-11T18:23:39.256Z,68.47
2022-10-11T18:26:11.878Z,68.60
2022-10-11T18:28:41.694Z,68.85
2022-10-11T18:31:13.746Z,69.17
2022-10-11T18:33:42.429Z,68.50
2022-10-11T18:36:13.514Z,68.97
2022-10-11T18:38:46.322Z,69.55
2022-10-11T18:41:16.737Z,69.42
2022-10-11T18:43:49.739Z,69.54
2022-10-11T18:46:18.074Z,69.68
2022-10-11T18:48:47.828Z,69.58
2022-10-11T18:51:18.419Z,69.73
2022-10-11T18:53:47.079Z,69.59
2022-10-11T18:56:16.909Z,70.05
2022-10-11T18:58:46.381Z,69.87
2022-10-11T19:01:17.301Z,70.37
2022-10-11T19:03:46.692Z,70.32
2022-10-11T19:06:18.217Z,70.40
2022-10-11T19:08:46.654Z,70.23
2022-10-11T19:11:16.638Z,70.68
2022-10-11T19:13:46.116Z,70.57
2022-10-11T19:16:16.663Z,70.60
2022-10-11T19:18:45.200Z,70.99
2022-10-11T19:21:14.568Z,71.03
2022-10-11T19:23:44.552Z,71.39
2022-10-11T19:26:15.829Z,71.24
2022-10-11T19:28:44.512Z,71.10
2022-10-11T19:31:16.937Z,71.03
2022-10-11T19:33:48.024Z,71.39
2022-10-11T19:36:16.289Z,71.22
2022-10-11T19:38:46.192Z,71.38
2022-10-11T19:41:15.077Z,71.05
2022-10-11T19:43:43.168Z,71.68
2022-10-11T19:46:20.246Z,71.67
2022-10-11T19:48:56.064Z,71.84
2022-10-11T19:51:26.284Z,72.13
2022-10-11T19:53:57.068Z,72.09
2022-10-11T19:56:25.352Z,71.97
2022-10-11T19:58:53.424Z,72.17
2022-10-11T20:01:24.400Z,72.25
2022-10-11T20:03:54.897Z,72.26
2022-10-11T20:06:24.666Z,72.80
2022-10-11T20:09:16.765Z,72.23
2022-10-11T20:11:41.275Z,72.58
2022-10-11T20:14:09.500Z,72.48
2022-10-11T20:16:39.116Z,72.78
2022-10-11T20:19:07.002Z,73.01
2022-10-11T20:21:34.860Z,73.20
2022-10-11T20:24:05.052Z,72.89
2022-10-11T20:26:33.282Z,73.23
2022-10-11T20:29:04.464Z,72.90
2022-10-11T20:31:34.171Z,72.99
2022-10-11T20:34:06.194Z,73.21
2022-10-11T20:36:36.261Z,73.14
2022-10-11T20:39:06.371Z,73.37
2022-10-11T20:41:37.075Z,73.29
2022-10-11T20:44:05.688Z,73.66
2022-10-11T20:46:35.266Z,73.57
2022-10-11T20:49:06.317Z,73.23
2022-10-11T20:51:36.301Z,74.46
2022-10-11T20:54:04.967Z,73.52
2022-10-11T20:56:33.709Z,74.37
2022-10-11T20:59:01.844Z,73.84
2022-10-11T21:01:31.796Z,73.89
2022-10-11T21:04:00.603Z,74.42
2022-10-11T21:06:31.466Z,74.58
2022-10-11T21:09:00.192Z,74.80
2022-10-11T21:11:28.589Z,74.49
2022-10-11T21:13:57.540Z,74.55
2022-10-11T21:16:26.016Z,74.38
2022-10-11T21:18:55.505Z,74.09
2022-10-11T21:21:24.845Z,74.29
2022-10-11T21:23:56.289Z,75.00
2022-10-11T21:26:24.142Z,74.39
2022-10-11T21:28:52.199Z,74.77
2022-10-11T21:31:21.378Z,74.69
2022-10-11T21:33:49.748Z,74.88
2022-10-11T21:36:19.778Z,74.68
2022-10-11T21:38:48.746Z,74.56
2022-10-11T21:41:20.411Z,74.85
2022-10-11T21:43:48.782Z,74.68
2022-10-11T21:46:18.874Z,75.04
2022-10-11T21:48:47.109Z,74.70
2022-10-11T21:51:16.716Z,74.93
2022-10-11T21:53:44.545Z,74.49
2022-10-11T21:56:12.455Z,74.96
2022-10-11T21:58:41.829Z,74.29
2022-10-11T22:01:09.904Z,74.83
2022-10-11T22:03:37.722Z,74.62
2022-10-11T22:06:06.050Z,74.24
2022-10-11T22:08:33.942Z,74.79
2022-10-11T22:11:02.243Z,75.29
2022-10-11T22:13:32.069Z,74.75
2022-10-11T22:16:05.501Z,74.62
2022-10-11T22:18:33.864Z,75.44
2022-10-11T22:21:06.440Z,75.51
2022-10-11T22:23:34.861Z,75.42
2022-10-11T22:26:06.839Z,75.68
2022-10-11T22:28:35.794Z,75.26
2022-10-11T22:31:07.193Z,75.44
2022-10-11T22:33:35.612Z,75.59
2022-10-11T22:36:08.722Z,75.85
2022-10-11T22:38:37.876Z,75.44
2022-10-11T22:41:05.965Z,75.91
2022-10-11T22:43:33.738Z,75.84
2022-10-11T22:46:01.919Z,75.84
2022-10-11T22:48:31.282Z,75.65
2022-10-11T22:50:59.061Z,76.31
2022-10-11T22:53:26.859Z,76.31
2022-10-11T22:55:54.888Z,75.72
2022-10-11T22:58:22.611Z,76.31
2022-10-11T23:00:50.464Z,76.21
2022-10-11T23:03:19.263Z,76.36
2022-10-11T23:05:56.494Z,76.22
2022-10-11T23:08:24.317Z,76.62
2022-10-11T23:10:52.250Z,76.92
2022-10-11T23:13:20.232Z,76.09
2022-10-11T23:15:48.043Z,76.06
2022-10-11T23:18:16.398Z,76.07
2022-10-11T23:20:44.183Z,76.24
2022-10-11T23:23:13.363Z,76.58
2022-10-11T23:25:41.130Z,77.13
2022-10-11T23:28:10.820Z,76.55
2022-10-11T23:30:40.648Z,76.79
2022-10-11T23:33:08.440Z,77.25
2022-10-11T23:35:36.570Z,76.53
2022-10-11T23:38:04.403Z,77.09
2022-10-11T23:40:33.628Z,77.07
2022-10-11T23:43:01.386Z,77.06
2022-10-11T23:45:29.280Z,77.27
2022-10-11T23:47:57.134Z,76.93
2022-10-11T23:50:24.953Z,77.03
2022-10-11T23:52:52.673Z,76.88
2022-10-11T23:55:20.496Z,76.53
2022-10-11T23:57:49.721Z,76.68
